Aérodrome :
LOGIN :

S'inscrire | Disclaimer

   EN    FR    IT 

 










Légende :    VFR   VFR Marginal   IFR   IFR Intensif   IFR Très Intensif
Visi : 
Plafond : 
>= 8 km
>= 3000ft
5 à 8 km
1000 à 3000 ft
1500m à 5 km
500 à 1000 ft
800 à 1500m
200 à 500 ft
< 800m
< 200 ft
Symboles :   Orages  Brouillard  Fortes neiges  Fortes précipitations  Vent > 20 kt
SIGMETs :   Divers  Orages  Givrage  Turbulence  Onde Orograph.  Cendres Volcan.






- Altitude de l'aérodrome : 7 ft
- Code IATA : POW


LJPZ - Portoroz

DERNIER METAR :
  • 220730Z 12005KT 9999 FEW045 SCT070 08/06 Q1014

METARs EXPIRÉS :
  • 220700Z 12006KT 9999 FEW045 08/06 Q1014
  • 220630Z 13006KT 9999 FEW042 SCT065 07/06 Q1014
  • 220600Z 13006KT 9999 FEW042 SCT065 BKN080 07/06 Q1014
  • 220530Z 13008KT 9999 FEW042 07/06 Q1014
  • 220500Z 12007KT 9999 FEW035 SCT050 07/06 Q1014

TAF TAF LJPZ
Valide du 22 à 06h jusqu'au 22 à 15h UTC


220500Z 2206/2215 12005KT 9999 FEW030 BKN090
TEMPO 2206/2215 BKN036
PROB30
TEMPO 2206/2215 16008KT SHRA FEW010 BKN035TCU



MET'MAP, la Météo Aéronautique d'un coup d'oeil ! - Copyright ORBIFLY Décembre 2007 - Disclaimer

ORBIFLY MET'MAP TEAM :

Programmation & Développement : Alexandra Zaïnal
Conception & Développement : Baudouin d'Aumeries
Co-Programmation & Développement : Marc-Olivier Méhu
Soutien technique & logistique : Manuel Goepfert

Contact : metmap@orbifly.com




SOURCES & CREDITS :

   NOAA